createdAt,value
2022-09-07T00:03:06.065Z,2.60
2022-09-07T00:08:09.250Z,2.50
2022-09-07T00:13:12.030Z,2.00
2022-09-07T00:18:14.934Z,1.90
2022-09-07T00:23:17.764Z,2.30
2022-09-07T00:28:20.635Z,2.80
2022-09-07T00:33:23.431Z,1.90
2022-09-07T00:38:26.735Z,2.50
2022-09-07T00:43:36.269Z,2.40
2022-09-07T00:49:02.879Z,2.90
2022-09-07T00:54:21.348Z,2.80
2022-09-07T00:59:31.780Z,3.00
2022-09-07T01:04:36.860Z,2.90
2022-09-07T01:09:40.832Z,2.90
2022-09-07T01:14:50.396Z,2.60
2022-09-07T01:20:30.436Z,2.40
2022-09-07T01:26:04.129Z,2.30
2022-09-07T01:31:54.810Z,2.60
2022-09-07T01:37:21.890Z,2.40
2022-09-07T01:42:56.850Z,2.60
2022-09-07T01:48:06.233Z,2.40
2022-09-07T01:53:26.043Z,2.20
2022-09-07T01:58:41.029Z,2.60
2022-09-07T02:03:54.376Z,2.60
2022-09-07T02:09:03.575Z,2.60
2022-09-07T02:14:14.747Z,2.60
2022-09-07T02:19:20.934Z,2.30
2022-09-07T02:24:39.172Z,2.40
2022-09-07T02:29:43.940Z,2.30
2022-09-07T02:34:46.716Z,2.40
2022-09-07T02:39:49.785Z,2.50
2022-09-07T02:44:52.877Z,2.50
2022-09-07T02:50:13.838Z,2.70
2022-09-07T02:55:34.483Z,2.30
2022-09-07T03:01:12.936Z,2.70
2022-09-07T03:06:25.824Z,2.80
2022-09-07T03:11:30.134Z,2.80
2022-09-07T03:16:33.571Z,2.70
2022-09-07T03:21:36.383Z,3.20
2022-09-07T03:26:43.791Z,2.80
2022-09-07T03:31:46.923Z,2.90
2022-09-07T03:36:49.648Z,2.70
2022-09-07T03:41:52.746Z,2.60
2022-09-07T03:46:55.554Z,2.60
2022-09-07T03:51:58.401Z,2.40
2022-09-07T03:57:01.145Z,2.60
2022-09-07T04:02:04.189Z,3.00
2022-09-07T04:07:07.184Z,2.80
2022-09-07T04:12:09.954Z,2.80
2022-09-07T04:17:13.228Z,2.60
2022-09-07T04:22:16.193Z,2.50
2022-09-07T04:27:18.933Z,2.80
2022-09-07T04:32:22.304Z,2.60
2022-09-07T04:37:25.137Z,2.60
2022-09-07T04:42:27.941Z,2.90
2022-09-07T04:47:31.242Z,3.00
2022-09-07T04:52:33.976Z,3.70
2022-09-07T04:57:37.262Z,2.80
2022-09-07T05:02:40.078Z,3.00
2022-09-07T05:07:43.228Z,2.90
2022-09-07T05:12:45.958Z,3.10
2022-09-07T05:17:50.278Z,2.60
2022-09-07T05:22:59.739Z,2.60
2022-09-07T05:28:04.141Z,2.80
2022-09-07T05:33:08.281Z,3.10
2022-09-07T05:38:11.104Z,2.60
2022-09-07T05:43:13.940Z,2.80
2022-09-07T05:48:16.733Z,2.00
2022-09-07T05:53:20.775Z,3.10
2022-09-07T05:58:23.654Z,2.90
2022-09-07T06:03:26.597Z,2.30
2022-09-07T06:08:30.274Z,2.30
2022-09-07T06:13:33.805Z,2.50
2022-09-07T06:18:39.550Z,3.20
2022-09-07T06:23:43.625Z,2.90
2022-09-07T06:28:50.126Z,3.00
2022-09-07T06:33:55.040Z,2.30
2022-09-07T06:39:01.570Z,2.40
2022-09-07T06:44:04.401Z,2.80
2022-09-07T06:49:07.287Z,2.20
2022-09-07T06:59:33.010Z,2.40
2022-09-07T07:04:40.484Z,2.20
2022-09-07T07:09:44.893Z,2.30
2022-09-07T07:14:47.931Z,2.40
2022-09-07T07:19:50.793Z,2.30
2022-09-07T07:24:57.222Z,2.50
2022-09-07T07:30:00.289Z,2.40
2022-09-07T07:35:03.589Z,2.30
2022-09-07T07:40:18.529Z,2.20
2022-09-07T07:50:57.825Z,2.20
2022-09-07T07:56:02.445Z,2.10
2022-09-07T08:01:09.190Z,2.10
2022-09-07T08:06:15.190Z,1.90
2022-09-07T08:11:20.371Z,2.00
2022-09-07T08:16:23.359Z,2.10
2022-09-07T08:21:26.456Z,2.10
2022-09-07T08:26:30.838Z,2.20
2022-09-07T08:31:33.683Z,1.80
2022-09-07T08:36:36.518Z,3.00
2022-09-07T08:41:57.591Z,1.90
2022-09-07T08:47:04.503Z,2.10
2022-09-07T08:52:45.975Z,1.80
2022-09-07T08:57:57.947Z,2.40
2022-09-07T09:08:50.700Z,2.10
2022-09-07T09:14:19.028Z,1.80
2022-09-07T09:19:35.732Z,2.40
2022-09-07T09:24:47.156Z,1.90
2022-09-07T09:29:53.355Z,2.00
2022-09-07T09:35:13.403Z,1.80
2022-09-07T09:40:26.278Z,2.50
2022-09-07T09:46:12.252Z,2.00
2022-09-07T09:56:22.971Z,1.90
2022-09-07T10:01:35.137Z,1.60
2022-09-07T10:06:38.689Z,1.90
2022-09-07T10:12:06.275Z,1.80
2022-09-07T10:17:25.597Z,2.00
2022-09-07T10:22:36.524Z,2.20
2022-09-07T10:27:40.926Z,2.00
2022-09-07T10:33:17.179Z,1.70
2022-09-07T10:38:26.216Z,2.00
2022-09-07T10:43:48.485Z,1.60
2022-09-07T10:49:06.460Z,1.40
2022-09-07T10:54:35.317Z,2.90
2022-09-07T11:00:12.500Z,1.30
2022-09-07T11:05:36.059Z,1.40
2022-09-07T11:10:52.764Z,1.40
2022-09-07T11:16:00.627Z,1.70
2022-09-07T11:21:12.237Z,1.50
2022-09-07T11:26:55.765Z,1.50
2022-09-07T11:32:15.537Z,1.70
2022-09-07T11:37:37.563Z,1.60
2022-09-07T11:42:48.226Z,1.20
2022-09-07T11:47:57.963Z,1.30
2022-09-07T11:53:28.739Z,1.30
2022-09-07T11:58:56.382Z,1.50
2022-09-07T12:04:15.464Z,1.40
2022-09-07T12:09:50.982Z,1.30
2022-09-07T12:15:13.198Z,1.40
2022-09-07T12:20:18.776Z,1.60
2022-09-07T12:25:22.038Z,1.10
2022-09-07T12:30:24.828Z,1.30
2022-09-07T12:35:28.304Z,1.20
2022-09-07T12:40:34.075Z,1.30
2022-09-07T12:45:36.755Z,1.40
2022-09-07T12:50:59.114Z,1.30
2022-09-07T12:56:16.408Z,1.30
2022-09-07T13:01:40.663Z,1.20
2022-09-07T13:07:05.309Z,1.30
2022-09-07T13:17:56.077Z,1.40
2022-09-07T13:23:25.636Z,1.20
2022-09-07T13:28:52.291Z,1.50
2022-09-07T13:33:57.154Z,1.20
2022-09-07T13:39:00.250Z,1.20
2022-09-07T13:44:06.774Z,1.30
2022-09-07T13:49:27.506Z,1.40
2022-09-07T13:54:56.621Z,1.50
2022-09-07T13:59:59.611Z,1.50
2022-09-07T14:05:04.945Z,1.50
2022-09-07T14:10:20.053Z,1.30
2022-09-07T14:15:25.773Z,1.50
2022-09-07T14:20:29.078Z,1.20
2022-09-07T14:26:15.920Z,1.10
2022-09-07T14:30:55.077Z,1.50
2022-09-07T14:35:59.359Z,1.30
2022-09-07T14:41:06.999Z,1.30
2022-09-07T14:46:18.180Z,1.50
2022-09-07T14:51:32.734Z,1.60
2022-09-07T14:56:40.974Z,1.60
2022-09-07T15:01:46.911Z,2.00
2022-09-07T15:07:05.565Z,1.40
2022-09-07T15:12:29.740Z,1.50
2022-09-07T15:17:42.947Z,1.60
2022-09-07T15:22:46.251Z,1.80
2022-09-07T15:27:49.180Z,1.40
2022-09-07T15:32:52.563Z,1.80
2022-09-07T15:38:04.285Z,2.10
2022-09-07T15:43:20.029Z,2.10
2022-09-07T15:48:25.248Z,2.10
2022-09-07T15:58:55.494Z,1.70
2022-09-07T16:04:00.440Z,1.60
2022-09-07T16:09:06.220Z,2.00
2022-09-07T16:14:12.659Z,1.80
2022-09-07T16:19:20.105Z,2.10
2022-09-07T16:24:23.257Z,2.20
2022-09-07T16:29:26.138Z,2.20
2022-09-07T16:34:29.743Z,2.10
2022-09-07T16:39:33.017Z,2.10
2022-09-07T16:44:35.833Z,2.10
2022-09-07T16:49:39.216Z,1.90
2022-09-07T16:54:42.245Z,2.20
2022-09-07T16:59:45.310Z,2.30
2022-09-07T17:04:48.172Z,2.60
2022-09-07T17:09:50.982Z,2.40
2022-09-07T17:14:54.106Z,2.80
2022-09-07T17:19:58.319Z,2.90
2022-09-07T17:25:01.048Z,3.40
2022-09-07T17:30:06.626Z,3.80
2022-09-07T17:35:10.427Z,4.00
2022-09-07T17:40:13.255Z,4.10
2022-09-07T17:45:16.197Z,3.90
2022-09-07T17:50:18.985Z,3.70
2022-09-07T17:55:22.460Z,3.50
2022-09-07T18:00:25.820Z,3.30
2022-09-07T18:05:28.661Z,4.30
2022-09-07T18:15:58.834Z,4.10
2022-09-07T18:21:03.391Z,3.80
2022-09-07T18:26:10.460Z,4.10
2022-09-07T18:31:13.330Z,4.50
2022-09-07T18:36:16.089Z,5.30
2022-09-07T18:41:20.389Z,4.60
2022-09-07T18:46:25.557Z,4.80
2022-09-07T18:51:30.909Z,4.90
2022-09-07T18:56:33.837Z,5.10
2022-09-07T19:01:38.160Z,5.00
2022-09-07T19:06:42.488Z,4.40
2022-09-07T19:11:45.298Z,4.50
2022-09-07T19:16:48.146Z,4.30
2022-09-07T19:21:53.529Z,4.50
2022-09-07T19:27:00.171Z,4.20
2022-09-07T19:32:08.004Z,4.40
2022-09-07T19:37:12.629Z,4.40
2022-09-07T19:42:15.467Z,4.40
2022-09-07T19:47:18.877Z,4.40
2022-09-07T19:52:23.491Z,5.00
2022-09-07T19:57:28.866Z,4.70
2022-09-07T20:02:31.781Z,4.10
2022-09-07T20:07:34.749Z,3.30
2022-09-07T20:12:37.518Z,3.80
2022-09-07T20:17:40.691Z,3.80
2022-09-07T20:22:43.441Z,3.80
2022-09-07T20:27:46.219Z,4.50
2022-09-07T20:32:49.370Z,3.90
2022-09-07T20:37:52.213Z,3.50
2022-09-07T20:42:55.193Z,3.20
2022-09-07T20:48:00.067Z,3.80
2022-09-07T20:53:04.389Z,3.80
2022-09-07T20:58:07.365Z,4.00
2022-09-07T21:03:10.684Z,3.30
2022-09-07T21:08:14.380Z,3.90
2022-09-07T21:13:17.691Z,3.60
2022-09-07T21:18:20.438Z,3.40
2022-09-07T21:23:24.303Z,3.80
2022-09-07T21:28:28.131Z,7.30
2022-09-07T21:33:35.321Z,23.80
2022-09-07T21:38:39.595Z,6.70
2022-09-07T21:43:42.450Z,6.30
2022-09-07T21:48:46.621Z,12.30
2022-09-07T21:53:58.230Z,7.20
2022-09-07T21:59:02.466Z,6.00
2022-09-07T22:04:07.117Z,4.10
2022-09-07T22:09:10.016Z,3.80
2022-09-07T22:14:13.764Z,3.40
2022-09-07T22:19:16.781Z,3.40
2022-09-07T22:24:19.524Z,3.00
2022-09-07T22:29:22.349Z,3.10
2022-09-07T22:34:25.131Z,2.50
2022-09-07T22:39:29.335Z,2.80
2022-09-07T22:44:32.860Z,2.80
2022-09-07T22:49:36.204Z,2.50
2022-09-07T22:54:38.951Z,2.40
2022-09-07T22:59:41.680Z,2.40
2022-09-07T23:04:45.118Z,2.50
2022-09-07T23:09:48.473Z,2.70
2022-09-07T23:14:51.227Z,3.00
2022-09-07T23:19:53.945Z,2.90
2022-09-07T23:24:56.695Z,2.50
2022-09-07T23:29:59.478Z,2.40
2022-09-07T23:35:03.523Z,2.70
2022-09-07T23:40:08.697Z,2.40
2022-09-07T23:45:11.477Z,2.50
2022-09-07T23:50:14.601Z,2.70
2022-09-07T23:55:17.488Z,2.60
